Time;durP1;ratioP1;P1;durP2;ratioP2;P2;SDS_P1;SDS_P2;PMS_P1;PMS_P2;Temp;Humidity;BMP_temperature;BMP_pressure;BME280_temperature;BME280_humidity;BME280_pressure;Samples;Min_cycle;Max_cycle;Signal;HPM_P1;HPM_P2
2021/10/16 00:00:23;;;;;;;19.50;14.38;;;;;;;5.04;100.00;96133.28;1015324;29;20024;-70
2021/10/16 00:00:54;;;;;;;21.38;14.80;;;;;;;5.04;100.00;96130.69;1015150;29;20159;-69
2021/10/16 00:01:24;;;;;;;19.27;14.55;;;;;;;5.04;100.00;96131.50;1015474;29;20036;-70
2021/10/16 00:01:55;;;;;;;20.05;14.55;;;;;;;5.06;100.00;96133.84;1017218;29;20042;-68
2021/10/16 00:02:25;;;;;;;24.75;15.15;;;;;;;5.07;100.00;96135.47;1019219;29;20032;-68
2021/10/16 00:02:56;;;;;;;18.35;13.13;;;;;;;4.99;100.00;96122.75;1019179;28;20032;-70
2021/10/16 00:03:26;;;;;;;18.30;12.77;;;;;;;5.07;100.00;96131.06;1023113;28;20027;-69
2021/10/16 00:03:56;;;;;;;17.88;13.40;;;;;;;5.08;100.00;96137.84;1023155;29;20051;-70
2021/10/16 00:04:27;;;;;;;18.83;12.95;;;;;;;5.10;100.00;96135.81;1023136;29;20436;-69
2021/10/16 00:04:58;;;;;;;19.58;12.80;;;;;;;5.12;100.00;96130.38;1024112;28;20359;-70
2021/10/16 00:05:28;;;;;;;18.17;13.90;;;;;;;5.03;100.00;96119.50;1031083;28;20038;-69
2021/10/16 00:05:59;;;;;;;19.30;12.73;;;;;;;5.12;100.00;96133.00;1019149;29;20575;-69
2021/10/16 00:06:30;;;;;;;22.13;14.18;;;;;;;5.13;100.00;96130.19;1023263;28;20023;-70
2021/10/16 00:07:00;;;;;;;34.92;14.93;;;;;;;5.14;100.00;96131.75;1027188;28;20038;-69
2021/10/16 00:07:32;;;;;;;18.63;13.20;;;;;;;5.17;100.00;96130.53;1027273;28;20042;-69
2021/10/16 00:08:02;;;;;;;18.77;13.35;;;;;;;5.12;100.00;96117.38;1030518;28;20034;-70
2021/10/16 00:08:33;;;;;;;21.65;13.43;;;;;;;5.16;100.00;96136.75;1022896;29;20275;-69
2021/10/16 00:09:03;;;;;;;20.17;13.57;;;;;;;5.10;100.00;96122.03;1023224;29;20488;-70
2021/10/16 00:09:34;;;;;;;19.50;13.45;;;;;;;5.18;100.00;96134.72;1019192;29;20028;-69
2021/10/16 00:10:04;;;;;;;41.60;15.00;;;;;;;5.12;100.00;96122.59;1023131;28;20042;-69
2021/10/16 00:10:35;;;;;;;28.52;14.60;;;;;;;5.19;100.00;96133.69;1026778;28;20466;-69
2021/10/16 00:11:05;;;;;;;30.52;15.05;;;;;;;5.13;100.00;96118.97;1023425;28;20039;-69
2021/10/16 00:11:36;;;;;;;38.22;14.98;;;;;;;5.13;100.00;96129.38;1022997;29;20058;-67
2021/10/16 00:12:06;;;;;;;29.10;13.60;;;;;;;5.19;100.00;96131.88;1023204;29;20066;-69
2021/10/16 00:12:37;;;;;;;22.20;14.98;;;;;;;5.20;100.00;96132.72;1023047;29;20114;-69
2021/10/16 00:13:07;;;;;;;16.75;13.77;;;;;;;5.23;100.00;96139.25;1019114;29;20039;-69
2021/10/16 00:13:38;;;;;;;19.65;13.60;;;;;;;5.20;100.00;96127.50;1015377;29;20593;-70
2021/10/16 00:14:09;;;;;;;18.90;14.65;;;;;;;5.27;100.00;96137.84;1015035;29;20422;-69
2021/10/16 00:14:40;;;;;;;23.02;14.15;;;;;;;5.26;100.00;96133.63;1019063;29;20556;-69
2021/10/16 00:15:11;;;;;;;19.10;13.93;;;;;;;5.24;100.00;96126.06;1015569;29;20063;-70
2021/10/16 00:15:41;;;;;;;19.17;13.32;;;;;;;5.26;100.00;96139.63;1020477;28;20275;-70
2021/10/16 00:16:11;;;;;;;22.95;14.05;;;;;;;5.27;100.00;96136.03;1026457;28;20524;-71
2021/10/16 00:16:42;;;;;;;33.72;13.93;;;;;;;5.21;100.00;96118.69;1023143;28;20426;-69
2021/10/16 00:17:12;;;;;;;22.00;13.75;;;;;;;5.27;100.00;96132.63;1027023;28;20141;-69
2021/10/16 00:17:43;;;;;;;19.50;13.13;;;;;;;5.22;100.00;96127.28;1026672;28;20127;-69
2021/10/16 00:18:14;;;;;;;19.65;13.43;;;;;;;5.28;100.00;96137.59;1018789;29;20028;-70
2021/10/16 00:18:44;;;;;;;16.75;12.80;;;;;;;5.24;100.00;96125.25;1023075;29;20038;-69
2021/10/16 00:19:15;;;;;;;21.67;13.63;;;;;;;5.27;100.00;96136.03;1019166;29;20375;-68
2021/10/16 00:19:45;;;;;;;16.67;13.30;;;;;;;5.25;100.00;96135.44;1019362;28;20035;-69
2021/10/16 00:20:15;;;;;;;21.63;13.48;;;;;;;5.25;100.00;96124.25;1031082;28;20030;-70
2021/10/16 00:20:46;;;;;;;18.00;13.48;;;;;;;5.23;100.00;96129.69;1022924;28;20091;-69
2021/10/16 00:21:16;;;;;;;17.02;13.45;;;;;;;5.11;100.00;96110.59;1022945;29;20035;-70
2021/10/16 00:21:47;;;;;;;21.52;13.50;;;;;;;5.23;100.00;96129.69;1019122;29;20035;-70
2021/10/16 00:22:20;;;;;;;17.77;12.32;;;;;;;5.24;100.00;96128.66;1018979;29;20027;-70
2021/10/16 00:22:51;;;;;;;19.45;13.90;;;;;;;5.22;100.00;96130.66;1024630;28;20526;-70
2021/10/16 00:23:22;;;;;;;22.95;13.57;;;;;;;5.24;100.00;96127.88;1026835;28;20274;-69
2021/10/16 00:23:52;;;;;;;20.85;13.38;;;;;;;5.24;100.00;96135.66;1027206;28;20034;-69
2021/10/16 00:24:23;;;;;;;18.25;13.00;;;;;;;5.24;100.00;96135.66;1030935;28;20026;-69
2021/10/16 00:24:53;;;;;;;24.38;13.05;;;;;;;5.24;100.00;96127.88;1031043;28;20022;-69
2021/10/16 00:25:23;;;;;;;21.98;13.80;;;;;;;5.18;100.00;96119.91;1030904;28;20096;-69
2021/10/16 00:25:54;;;;;;;20.65;12.65;;;;;;;5.23;100.00;96132.28;1031036;28;20027;-69
2021/10/16 00:26:24;;;;;;;20.27;13.50;;;;;;;5.24;100.00;96133.84;1030939;28;20026;-69
2021/10/16 00:26:55;;;;;;;20.73;13.10;;;;;;;5.24;100.00;96130.47;1022841;29;20027;-69
2021/10/16 00:27:25;;;;;;;20.70;14.00;;;;;;;5.24;100.00;96131.25;1023337;28;20107;-70
2021/10/16 00:27:56;;;;;;;16.60;13.43;;;;;;;5.05;100.00;96101.06;1026158;28;20100;-70
2021/10/16 00:28:26;;;;;;;19.55;14.23;;;;;;;5.25;100.00;96132.84;1027128;28;20023;-70
2021/10/16 00:28:57;;;;;;;18.48;14.15;;;;;;;5.27;100.00;96130.03;1026480;28;20517;-68
2021/10/16 00:29:27;;;;;;;20.90;13.23;;;;;;;5.28;100.00;96136.81;1027059;28;20424;-69
2021/10/16 00:29:57;;;;;;;21.05;13.82;;;;;;;5.29;100.00;96133.19;1026982;28;20479;-69
2021/10/16 00:30:28;;;;;;;20.45;14.55;;;;;;;5.29;100.00;96133.97;1027112;28;20019;-70
2021/10/16 00:30:58;;;;;;;18.27;13.77;;;;;;;5.25;100.00;96127.63;1026470;28;20027;-69
2021/10/16 00:31:29;;;;;;;21.23;14.82;;;;;;;5.30;100.00;96134.78;1015387;29;20017;-70
2021/10/16 00:31:59;;;;;;;19.83;14.27;;;;;;;5.30;100.00;96133.00;1018994;29;20023;-69
2021/10/16 00:32:30;;;;;;;18.95;14.80;;;;;;;5.30;100.00;96135.59;1019353;29;20090;-69
2021/10/16 00:33:00;;;;;;;19.33;14.68;;;;;;;5.27;100.00;96130.81;1021364;28;20030;-69
2021/10/16 00:33:31;;;;;;;22.52;16.17;;;;;;;5.35;100.00;96138.31;1027036;28;20050;-69
2021/10/16 00:34:01;;;;;;;20.15;14.27;;;;;;;5.37;100.00;96138.91;1031218;28;20014;-69
2021/10/16 00:34:31;;;;;;;18.50;14.85;;;;;;;5.40;100.00;96145.47;1027023;28;20022;-69
2021/10/16 00:35:02;;;;;;;18.30;13.85;;;;;;;5.37;100.00;96130.31;1022876;28;20027;-70
2021/10/16 00:35:33;;;;;;;20.65;15.45;;;;;;;5.42;100.00;96143.44;1027074;28;20114;-68
2021/10/16 00:36:03;;;;;;;19.55;13.75;;;;;;;5.43;100.00;96135.44;1030954;28;20025;-69
2021/10/16 00:36:34;;;;;;;20.05;14.70;;;;;;;5.37;100.00;96125.88;1030854;28;20622;-68
2021/10/16 00:37:04;;;;;;;20.33;14.40;;;;;;;5.46;100.00;96139.38;1027121;28;20936;-69
2021/10/16 00:37:35;;;;;;;20.25;15.15;;;;;;;5.49;100.00;96146.75;1029194;28;20133;-70
2021/10/16 00:38:05;;;;;;;20.13;13.88;;;;;;;5.43;100.00;96129.41;1022244;28;20694;-69
2021/10/16 00:38:36;;;;;;;19.85;14.75;;;;;;;5.51;100.00;96142.13;1023036;28;20019;-69
2021/10/16 00:39:06;;;;;;;19.35;13.50;;;;;;;5.48;100.00;96136.56;1026559;28;20011;-69
2021/10/16 00:39:36;;;;;;;19.02;13.43;;;;;;;5.57;100.00;96146.44;1023100;28;20071;-68
2021/10/16 00:40:08;;;;;;;21.80;13.55;;;;;;;5.57;100.00;96145.66;1026931;28;20086;-69
2021/10/16 00:40:38;;;;;;;18.90;13.93;;;;;;;5.60;100.00;96145.19;1030981;28;20397;-68
2021/10/16 00:41:11;;;;;;;18.10;13.55;;;;;;;5.53;100.00;96141.88;1023216;28;20251;-69
2021/10/16 00:41:42;;;;;;;18.38;14.60;;;;;;;5.60;100.00;96145.19;1021979;29;20469;-69
2021/10/16 00:42:12;;;;;;;17.95;13.45;;;;;;;5.62;100.00;96143.19;1017596;29;20259;-66
2021/10/16 00:42:46;;;;;;;18.60;14.48;;;;;;;5.61;100.00;96145.00;1021053;29;20034;-70
2021/10/16 00:43:17;;;;;;;27.60;14.18;;;;;;;5.63;100.00;96144.75;1024412;28;20034;-69
2021/10/16 00:43:48;;;;;;;19.73;13.93;;;;;;;5.63;100.00;96144.75;1030564;28;20297;-70
2021/10/16 00:44:22;;;;;;;17.98;13.50;;;;;;;5.65;100.00;96142.75;1033100;28;20021;-69
2021/10/16 00:44:52;;;;;;;21.60;14.20;;;;;;;5.67;100.00;96145.94;1030925;28;20064;-69
2021/10/16 00:45:23;;;;;;;21.45;14.60;;;;;;;5.67;100.00;96145.94;1027533;28;20266;-69
2021/10/16 00:45:54;;;;;;;20.25;13.00;;;;;;;5.67;100.00;96146.72;1023097;29;20061;-69
2021/10/16 00:46:24;;;;;;;18.75;13.85;;;;;;;5.68;100.00;96144.91;1021663;28;21082;-69
2021/10/16 00:46:56;;;;;;;18.98;13.52;;;;;;;5.69;100.00;96138.66;1023135;28;20412;-69
2021/10/16 00:47:27;;;;;;;21.67;13.90;;;;;;;5.69;100.00;96141.28;1027267;28;20019;-69
2021/10/16 00:47:57;;;;;;;20.73;14.45;;;;;;;5.64;100.00;96141.94;1024622;28;20341;-68
2021/10/16 00:48:27;;;;;;;18.38;13.32;;;;;;;5.69;100.00;96138.66;1023380;28;20071;-70
2021/10/16 00:48:58;;;;;;;19.23;13.60;;;;;;;5.68;100.00;96137.88;1027216;28;20023;-70
2021/10/16 00:49:28;;;;;;;17.90;13.77;;;;;;;5.70;100.00;96137.69;1027210;28;20018;-70
2021/10/16 00:49:59;;;;;;;18.38;13.10;;;;;;;5.65;100.00;96129.72;1027095;28;20035;-68
2021/10/16 00:50:29;;;;;;;21.80;14.48;;;;;;;5.64;100.00;96128.16;1023613;29;20551;-70
2021/10/16 00:51:00;;;;;;;17.98;12.93;;;;;;;5.74;100.00;96140.63;1019213;29;20028;-70
2021/10/16 00:51:30;;;;;;;16.00;12.60;;;;;;;5.72;100.00;96142.66;1015281;29;20030;-70
2021/10/16 00:52:01;;;;;;;19.02;14.50;;;;;;;5.70;100.00;96140.28;1019250;29;20023;-70
2021/10/16 00:52:31;;;;;;;21.67;13.68;;;;;;;5.72;100.00;96140.84;1015327;29;20050;-70
2021/10/16 00:53:02;;;;;;;21.88;13.48;;;;;;;5.67;100.00;96132.91;1019429;29;20024;-69
2021/10/16 00:53:33;;;;;;;18.88;13.35;;;;;;;5.73;100.00;96139.81;1026898;28;20019;-69
2021/10/16 00:54:07;;;;;;;17.30;12.93;;;;;;;5.74;100.00;96138.03;1027317;28;20026;-68
2021/10/16 00:54:37;;;;;;;20.92;12.88;;;;;;;5.74;100.00;96135.44;1027182;28;20258;-70
2021/10/16 00:55:12;;;;;;;19.08;14.07;;;;;;;5.75;100.00;96137.00;1019077;29;20263;-69
2021/10/16 00:55:42;;;;;;;18.33;12.43;;;;;;;5.76;100.00;96135.97;1020200;29;20500;-70
2021/10/16 00:56:13;;;;;;;19.40;13.45;;;;;;;5.77;100.00;96133.16;1024405;28;20274;-69
2021/10/16 00:56:43;;;;;;;17.55;12.20;;;;;;;5.78;100.00;96136.56;1023830;28;20030;-67
2021/10/16 00:57:14;;;;;;;16.80;12.95;;;;;;;5.77;100.00;96140.97;1027524;28;20011;-65
2021/10/16 00:57:45;;;;;;;21.33;13.55;;;;;;;5.80;100.00;96137.13;1026518;28;20059;-70
2021/10/16 00:58:15;;;;;;;19.02;13.80;;;;;;;5.72;100.00;96127.03;1023215;28;20035;-68
2021/10/16 00:58:46;;;;;;;17.48;13.00;;;;;;;5.79;100.00;96138.13;1023308;29;20027;-69
2021/10/16 00:59:17;;;;;;;16.50;12.63;;;;;;;5.79;100.00;96138.94;1019182;29;20071;-71
2021/10/16 00:59:47;;;;;;;16.98;12.20;;;;;;;5.82;100.00;96137.69;1014997;29;20547;-70
2021/10/16 01:00:18;;;;;;;18.90;13.55;;;;;;;5.83;100.00;96137.47;1011535;29;20253;-70
2021/10/16 01:00:48;;;;;;;16.92;12.65;;;;;;;5.83;100.00;96134.88;1015272;29;20017;-70
2021/10/16 01:01:19;;;;;;;18.42;13.20;;;;;;;5.83;100.00;96140.06;1015570;29;20020;-70
2021/10/16 01:01:49;;;;;;;17.23;12.60;;;;;;;5.84;100.00;96136.47;1023231;28;20477;-71
2021/10/16 01:02:20;;;;;;;19.58;12.45;;;;;;;5.87;100.00;96135.25;1031043;28;20038;-69
2021/10/16 01:02:50;;;;;;;16.00;13.02;;;;;;;5.84;100.00;96130.47;1027319;28;20023;-70
2021/10/16 01:03:21;;;;;;;18.55;13.38;;;;;;;5.84;100.00;96131.25;1027165;28;20023;-70
2021/10/16 01:03:51;;;;;;;16.83;12.88;;;;;;;5.75;100.00;96122.16;1027078;28;20018;-70
2021/10/16 01:04:22;;;;;;;19.05;13.52;;;;;;;5.75;100.00;96116.97;1027250;28;20201;-69
2021/10/16 01:04:52;;;;;;;17.58;12.38;;;;;;;5.86;100.00;96134.41;1031064;28;20031;-69
2021/10/16 01:05:23;;;;;;;19.08;11.85;;;;;;;5.89;100.00;96133.19;1033583;28;20090;-71
2021/10/16 01:05:53;;;;;;;20.17;12.57;;;;;;;5.87;100.00;96133.41;1034956;28;20470;-69
2021/10/16 01:06:24;;;;;;;17.15;13.10;;;;;;;5.89;100.00;96133.97;1027210;28;20025;-69
2021/10/16 01:06:54;;;;;;;16.42;12.13;;;;;;;5.89;100.00;96133.97;1031187;28;20042;-65
2021/10/16 01:07:25;;;;;;;18.95;12.98;;;;;;;5.93;100.00;96134.34;1023098;29;20539;-70
2021/10/16 01:07:56;;;;;;;17.95;13.73;;;;;;;5.94;100.00;96133.34;1022472;28;20056;-67
2021/10/16 01:08:26;;;;;;;19.75;12.95;;;;;;;5.95;100.00;96136.75;1015194;29;20513;-70
2021/10/16 01:08:57;;;;;;;18.17;12.70;;;;;;;5.96;100.00;96138.31;1015252;29;20027;-70
2021/10/16 01:09:27;;;;;;;17.52;12.75;;;;;;;5.95;100.00;96132.34;1015370;29;20027;-68
2021/10/16 01:09:58;;;;;;;18.30;12.85;;;;;;;5.97;100.00;96130.31;1015335;29;20035;-69
2021/10/16 01:10:28;;;;;;;17.27;12.73;;;;;;;5.97;100.00;96134.69;1023149;28;20022;-70
2021/10/16 01:10:59;;;;;;;23.27;13.55;;;;;;;5.97;100.00;96135.53;1023244;28;20120;-67
2021/10/16 01:11:35;;;;;;;15.23;12.10;;;;;;;5.97;100.00;96135.53;1023171;29;20007;-68
2021/10/16 01:12:05;;;;;;;19.38;12.63;;;;;;;5.94;100.00;96135.97;1023201;29;20453;-70
2021/10/16 01:12:36;;;;;;;17.45;12.55;;;;;;;5.93;100.00;96130.97;1024071;28;20323;-68
2021/10/16 01:13:07;;;;;;;23.55;13.23;;;;;;;6.01;100.00;96135.88;1023946;28;20568;-69
2021/10/16 01:13:37;;;;;;;16.88;12.68;;;;;;;6.00;100.00;96140.28;1027290;28;20265;-68
2021/10/16 01:14:10;;;;;;;15.82;12.38;;;;;;;6.00;100.00;96139.47;1023241;28;20023;-68
2021/10/16 01:14:45;;;;;;;18.92;12.13;;;;;;;5.97;100.00;96132.91;1023331;28;20777;-68
2021/10/16 01:15:16;;;;;;;16.95;12.13;;;;;;;6.03;100.00;96139.03;1023133;29;20764;-69
2021/10/16 01:15:47;;;;;;;16.55;12.23;;;;;;;6.03;100.00;96139.03;1016292;29;20268;-68
2021/10/16 01:16:17;;;;;;;15.75;12.10;;;;;;;6.04;100.00;96130.22;1015036;29;20264;-68
2021/10/16 01:16:52;;;;;;;14.15;11.68;;;;;;;6.06;100.00;96131.56;1019058;29;20020;-68
2021/10/16 01:17:23;;;;;;;16.08;12.38;;;;;;;6.07;100.00;96137.56;1019187;29;20059;-68
2021/10/16 01:17:53;;;;;;;19.60;13.43;;;;;;;6.07;100.00;96129.72;1023287;28;20274;-68
2021/10/16 01:18:24;;;;;;;18.42;13.02;;;;;;;6.08;100.00;96123.53;1023427;28;20026;-68
2021/10/16 01:18:54;;;;;;;22.50;12.48;;;;;;;6.11;100.00;96130.91;1018939;29;20016;-69
2021/10/16 01:19:25;;;;;;;17.48;11.48;;;;;;;6.14;100.00;96130.44;1019224;29;20026;-67
2021/10/16 01:20:00;;;;;;;20.13;12.05;;;;;;;6.13;100.00;96124.44;1015108;29;20020;-70
2021/10/16 01:20:30;;;;;;;18.63;12.70;;;;;;;6.13;100.00;96128.84;1020036;29;20015;-68
2021/10/16 01:21:05;;;;;;;17.75;13.05;;;;;;;6.08;100.00;96132.13;1015048;29;20256;-68
2021/10/16 01:21:38;;;;;;;19.13;12.10;;;;;;;6.13;100.00;96128.84;1011300;29;20052;-67
2021/10/16 01:22:08;;;;;;;21.80;12.60;;;;;;;6.14;100.00;96131.25;1011401;29;20799;-67
2021/10/16 01:22:40;;;;;;;17.60;13.05;;;;;;;6.18;100.00;96131.59;1012274;29;20267;-69
2021/10/16 01:23:10;;;;;;;19.75;12.95;;;;;;;6.11;100.00;96128.28;1015776;29;20024;-68
2021/10/16 01:23:41;;;;;;;19.13;11.98;;;;;;;6.12;100.00;96124.66;1019304;29;20363;-69
2021/10/16 01:24:12;;;;;;;21.17;13.13;;;;;;;6.14;100.00;96127.84;1027055;28;20850;-69
2021/10/16 01:24:43;;;;;;;18.45;12.88;;;;;;;6.12;100.00;96122.84;1027167;28;20060;-68
2021/10/16 01:25:18;;;;;;;18.13;12.55;;;;;;;6.12;100.00;96122.84;1019018;29;20263;-67
2021/10/16 01:25:49;;;;;;;18.65;12.07;;;;;;;6.20;100.00;96131.34;1019322;29;20020;-69
2021/10/16 01:26:20;;;;;;;19.63;12.07;;;;;;;6.21;100.00;96136.34;1022810;29;20263;-69
2021/10/16 01:26:50;;;;;;;16.83;12.52;;;;;;;6.22;100.00;96132.72;1023890;28;20757;-68
2021/10/16 01:27:21;;;;;;;16.05;12.15;;;;;;;6.21;100.00;96135.56;1024296;28;20958;-70
2021/10/16 01:27:51;;;;;;;16.77;13.07;;;;;;;6.19;100.00;96127.94;1031337;28;20041;-71
2021/10/16 01:28:22;;;;;;;14.93;12.40;;;;;;;6.22;100.00;96132.72;1026916;28;20023;-67
2021/10/16 01:28:53;;;;;;;15.15;11.95;;;;;;;6.23;100.00;96134.28;1027153;28;20027;-68
2021/10/16 01:29:24;;;;;;;17.40;12.98;;;;;;;6.23;100.00;96129.09;1022915;29;20070;-64
2021/10/16 01:29:54;;;;;;;16.50;12.65;;;;;;;6.24;100.00;96135.91;1019177;29;20121;-68
2021/10/16 01:30:25;;;;;;;19.00;13.15;;;;;;;6.26;100.00;96138.28;1023144;28;20788;-68
2021/10/16 01:30:56;;;;;;;18.25;11.68;;;;;;;6.28;100.00;96134.44;1019022;29;20465;-69
2021/10/16 01:31:27;;;;;;;17.45;12.70;;;;;;;6.26;100.00;96133.84;1019427;29;20256;-68
2021/10/16 01:32:01;;;;;;;17.48;12.63;;;;;;;6.25;100.00;96134.09;1019041;29;20299;-68
2021/10/16 01:32:31;;;;;;;28.23;14.55;;;;;;;6.19;100.00;96124.56;1020262;28;20024;-68
2021/10/16 01:33:02;;;;;;;21.35;13.20;;;;;;;6.16;100.00;96119.78;1025370;28;20278;-69
2021/10/16 01:33:32;;;;;;;16.52;13.35;;;;;;;6.22;100.00;96137.94;1023012;29;20516;-70
2021/10/16 01:34:02;;;;;;;17.75;14.15;;;;;;;6.21;100.00;96125.13;1023250;29;20509;-68
2021/10/16 01:34:33;;;;;;;22.40;14.15;;;;;;;6.27;100.00;96130.25;1015176;29;20032;-67
2021/10/16 01:35:04;;;;;;;16.77;12.25;;;;;;;6.22;100.00;96129.31;1019133;29;20026;-68
2021/10/16 01:35:34;;;;;;;19.27;11.88;;;;;;;6.23;100.00;96123.88;1015189;29;20517;-66
2021/10/16 01:36:06;;;;;;;18.90;13.18;;;;;;;6.27;100.00;96135.44;1019210;29;20078;-68
2021/10/16 01:36:40;;;;;;;18.77;14.18;;;;;;;6.23;100.00;96133.50;1026936;28;20046;-68
2021/10/16 01:37:11;;;;;;;18.67;12.55;;;;;;;6.25;100.00;96134.09;1023040;29;20275;-68
2021/10/16 01:37:43;;;;;;;18.15;12.32;;;;;;;6.26;100.00;96130.44;1022392;29;20259;-68
2021/10/16 01:38:13;;;;;;;21.00;13.68;;;;;;;6.29;100.00;96130.00;1023843;28;20029;-67
2021/10/16 01:38:44;;;;;;;18.77;13.05;;;;;;;6.28;100.00;96136.25;1027777;28;20270;-68
2021/10/16 01:39:14;;;;;;;21.60;13.13;;;;;;;6.21;100.00;96125.94;1035200;28;20032;-69
2021/10/16 01:39:45;;;;;;;16.10;12.52;;;;;;;6.28;100.00;96136.25;1027603;28;20023;-68
2021/10/16 01:40:15;;;;;;;16.90;12.32;;;;;;;6.23;100.00;96134.28;1030822;28;20026;-68
2021/10/16 01:40:46;;;;;;;16.05;12.25;;;;;;;6.24;100.00;96129.91;1027068;28;20023;-67
2021/10/16 01:41:16;;;;;;;17.98;12.43;;;;;;;6.25;100.00;96134.88;1027077;28;20023;-67
2021/10/16 01:41:47;;;;;;;19.45;12.75;;;;;;;6.25;100.00;96132.28;1026910;28;20031;-68
2021/10/16 01:42:17;;;;;;;25.27;13.90;;;;;;;6.29;100.00;96132.63;1023066;28;20043;-68
2021/10/16 01:42:49;;;;;;;23.33;13.20;;;;;;;6.30;100.00;96134.97;1027007;28;20026;-68
2021/10/16 01:43:19;;;;;;;19.88;12.85;;;;;;;6.26;100.00;96130.44;1014898;29;20033;-68
2021/10/16 01:43:49;;;;;;;19.38;12.27;;;;;;;6.31;100.00;96135.78;1015089;29;20647;-68
2021/10/16 01:44:20;;;;;;;17.17;12.25;;;;;;;6.27;100.00;96125.03;1014180;29;20023;-69
2021/10/16 01:44:50;;;;;;;18.10;12.70;;;;;;;6.29;100.00;96133.41;1012617;29;20028;-67
2021/10/16 01:45:21;;;;;;;16.38;12.00;;;;;;;6.30;100.00;96137.59;1020439;28;20042;-68
2021/10/16 01:45:52;;;;;;;16.17;12.60;;;;;;;6.24;100.00;96122.88;1030530;28;20041;-68
2021/10/16 01:46:22;;;;;;;19.08;13.30;;;;;;;6.33;100.00;96133.75;1030919;28;20030;-68
2021/10/16 01:46:53;;;;;;;16.30;12.23;;;;;;;6.32;100.00;96132.94;1030548;28;20496;-67
2021/10/16 01:47:23;;;;;;;16.67;13.25;;;;;;;6.27;100.00;96122.44;1018675;29;20115;-68
2021/10/16 01:47:54;;;;;;;15.48;12.13;;;;;;;6.33;100.00;96129.31;1013341;29;20028;-67
2021/10/16 01:48:25;;;;;;;21.02;13.85;;;;;;;6.29;100.00;96128.19;1018602;29;20034;-69
2021/10/16 01:48:56;;;;;;;22.33;12.52;;;;;;;6.33;100.00;96131.91;1015494;28;20028;-67
2021/10/16 01:49:29;;;;;;;18.48;14.20;;;;;;;6.30;100.00;96119.34;1027331;28;20294;-67
2021/10/16 01:49:59;;;;;;;18.48;13.68;;;;;;;6.34;100.00;96130.13;1022489;29;20255;-70
2021/10/16 01:50:37;;;;;;;20.65;13.57;;;;;;;6.33;100.00;96128.53;1019546;29;20119;-69
2021/10/16 01:51:07;;;;;;;20.15;13.30;;;;;;;6.32;100.00;96127.75;1026632;28;20062;-67
2021/10/16 01:51:38;;;;;;;18.35;13.38;;;;;;;6.33;100.00;96129.31;1027528;28;20282;-68
2021/10/16 01:52:09;;;;;;;17.25;13.57;;;;;;;6.34;100.00;96130.94;1026638;28;20113;-67
2021/10/16 01:52:39;;;;;;;19.40;13.55;;;;;;;6.34;100.00;96130.94;1018605;29;20269;-68
2021/10/16 01:53:10;;;;;;;17.13;13.23;;;;;;;6.36;100.00;96131.47;1024872;28;20030;-68
2021/10/16 01:53:41;;;;;;;20.65;13.55;;;;;;;6.39;100.00;96125.03;1022738;28;20106;-68
2021/10/16 01:54:11;;;;;;;23.48;13.75;;;;;;;6.36;100.00;96125.47;1026576;28;21206;-67
2021/10/16 01:54:42;;;;;;;21.35;12.65;;;;;;;6.38;100.00;96124.25;1022829;29;20034;-68
2021/10/16 01:55:12;;;;;;;17.70;12.20;;;;;;;6.41;100.00;96124.81;1022654;29;20076;-67
2021/10/16 01:55:43;;;;;;;20.27;13.80;;;;;;;6.37;100.00;96127.88;1022921;28;20045;-67
2021/10/16 01:56:13;;;;;;;17.88;12.55;;;;;;;6.34;100.00;96120.50;1026786;28;20049;-69
2021/10/16 01:56:43;;;;;;;19.08;13.23;;;;;;;6.26;100.00;96115.59;1030754;28;20080;-68
2021/10/16 01:57:14;;;;;;;18.58;13.23;;;;;;;6.35;100.00;96121.28;1026313;28;20512;-68
2021/10/16 01:57:45;;;;;;;18.33;13.18;;;;;;;6.32;100.00;96127.75;1026220;28;20031;-68
2021/10/16 01:58:16;;;;;;;18.02;13.20;;;;;;;6.32;100.00;96122.53;1026300;28;20568;-68
2021/10/16 01:58:46;;;;;;;17.65;12.88;;;;;;;6.30;100.00;96124.56;1026845;28;20282;-68
2021/10/16 01:59:21;;;;;;;18.25;12.75;;;;;;;6.28;100.00;96120.59;1022828;28;20038;-68
2021/10/16 01:59:52;;;;;;;21.15;12.98;;;;;;;6.33;100.00;96121.50;1023389;28;20058;-70
2021/10/16 02:00:23;;;;;;;18.63;14.00;;;;;;;6.33;100.00;96118.91;1027139;28;20329;-68
2021/10/16 02:00:53;;;;;;;14.35;12.15;;;;;;;6.33;100.00;96118.09;1031318;28;20503;-68
2021/10/16 02:01:24;;;;;;;17.05;11.82;;;;;;;6.35;100.00;96121.28;1035028;28;20022;-67
2021/10/16 02:01:54;;;;;;;20.23;12.02;;;;;;;6.31;100.00;96115.75;1032784;28;20048;-66
2021/10/16 02:02:24;;;;;;;21.40;12.80;;;;;;;6.35;100.00;96122.06;1026419;28;20425;-68
2021/10/16 02:02:55;;;;;;;20.02;12.70;;;;;;;6.35;100.00;96121.28;1018717;29;20028;-68
2021/10/16 02:03:25;;;;;;;17.67;12.57;;;;;;;6.34;100.00;96125.72;1018769;29;20046;-67
2021/10/16 02:03:56;;;;;;;19.48;12.45;;;;;;;6.36;100.00;96112.44;1018636;28;20371;-69
2021/10/16 02:04:26;;;;;;;17.33;13.95;;;;;;;6.36;100.00;96121.06;1022604;29;20057;-67
2021/10/16 02:04:57;;;;;;;21.38;13.57;;;;;;;6.21;100.00;96094.66;1022591;29;20449;-70
2021/10/16 02:05:27;;;;;;;19.00;13.25;;;;;;;6.36;100.00;96115.06;1022842;28;20453;-71
2021/10/16 02:05:58;;;;;;;22.98;13.25;;;;;;;6.38;100.00;96120.84;1026786;28;20019;-67
2021/10/16 02:06:28;;;;;;;21.00;13.52;;;;;;;6.37;100.00;96124.44;1026600;28;20022;-69
2021/10/16 02:06:58;;;;;;;19.27;13.15;;;;;;;6.37;100.00;96125.25;1026659;28;20548;-70
2021/10/16 02:07:29;;;;;;;24.58;12.77;;;;;;;6.38;100.00;96116.41;1030662;28;20571;-70
2021/10/16 02:07:59;;;;;;;21.42;13.20;;;;;;;6.40;100.00;96118.00;1025938;28;20023;-67
2021/10/16 02:08:30;;;;;;;19.20;12.68;;;;;;;6.35;100.00;96113.47;1026840;28;20638;-68
2021/10/16 02:09:00;;;;;;;17.88;13.25;;;;;;;6.32;100.00;96106.88;1022593;29;20035;-68
2021/10/16 02:09:31;;;;;;;18.92;13.52;;;;;;;6.39;100.00;96122.41;1018847;29;20027;-69
2021/10/16 02:10:02;;;;;;;17.63;12.38;;;;;;;6.39;100.00;96125.03;1022757;28;20095;-69
2021/10/16 02:10:32;;;;;;;21.10;13.85;;;;;;;6.38;100.00;96115.63;1030690;28;20026;-69
2021/10/16 02:11:05;;;;;;;22.30;13.00;;;;;;;6.37;100.00;96114.84;1034995;28;20033;-70
2021/10/16 02:11:36;;;;;;;22.23;13.30;;;;;;;6.36;100.00;96118.44;1039019;28;20026;-68
2021/10/16 02:12:06;;;;;;;19.42;13.80;;;;;;;6.36;100.00;96115.84;1034755;28;20714;-70
2021/10/16 02:12:37;;;;;;;20.63;13.82;;;;;;;6.36;100.00;96117.66;1030652;28;20514;-70
2021/10/16 02:13:07;;;;;;;17.27;13.43;;;;;;;6.35;100.00;96118.69;1026707;28;20472;-69
2021/10/16 02:13:40;;;;;;;19.80;13.80;;;;;;;6.34;100.00;96115.28;1023103;28;20027;-70
2021/10/16 02:14:11;;;;;;;17.63;12.95;;;;;;;6.30;100.00;96102.91;1023890;28;20286;-70
2021/10/16 02:14:41;;;;;;;21.00;14.10;;;;;;;6.36;100.00;96113.22;1026901;28;20624;-70
2021/10/16 02:15:11;;;;;;;19.00;13.13;;;;;;;6.34;100.00;96120.50;1026729;28;20034;-69
2021/10/16 02:15:42;;;;;;;22.83;13.65;;;;;;;6.37;100.00;96114.03;1026818;28;20058;-69
2021/10/16 02:16:12;;;;;;;17.23;12.80;;;;;;;6.36;100.00;96113.22;1034659;28;20973;-68
2021/10/16 02:16:43;;;;;;;18.33;12.70;;;;;;;6.38;100.00;96118.22;1026782;28;20094;-66
2021/10/16 02:17:13;;;;;;;19.33;12.93;;;;;;;6.37;100.00;96120.06;1030512;28;20018;-69
2021/10/16 02:17:44;;;;;;;16.88;12.50;;;;;;;6.37;100.00;96116.63;1030091;28;20491;-69
2021/10/16 02:18:14;;;;;;;19.67;12.73;;;;;;;6.37;100.00;96108.81;1030148;28;20038;-70
2021/10/16 02:18:45;;;;;;;19.45;12.93;;;;;;;6.35;100.00;96116.88;1034781;28;20047;-70
2021/10/16 02:19:15;;;;;;;16.20;12.35;;;;;;;6.35;100.00;96116.06;1034515;28;20060;-70
2021/10/16 02:19:46;;;;;;;18.17;12.45;;;;;;;6.34;100.00;96112.69;1030703;28;20022;-69
2021/10/16 02:20:16;;;;;;;18.15;12.88;;;;;;;6.36;100.00;96113.22;1026572;28;20511;-69
2021/10/16 02:20:46;;;;;;;16.90;12.88;;;;;;;6.36;100.00;96109.84;1026903;28;20033;-68
2021/10/16 02:21:17;;;;;;;15.80;11.73;;;;;;;6.33;100.00;96110.28;1030517;28;20026;-70
2021/10/16 02:21:47;;;;;;;18.02;12.57;;;;;;;6.38;100.00;96111.19;1030662;28;20030;-70